Extreme weather reports worldwide

Thunderstorm

Station
 
Location
 
Name
 
Wind
Knots
Gust
Knots
Vis
SM
Temp/Dew
C
Baro
inHg
METAR
 
LXS LGLM Limnos Island, GR Limnos Airport 20 40 1.24 11/9 29.62 LGLM 050420Z 13020G40KT 2000 +TSRA FEW008 FEW020CB SCT030 11/09 Q1003
JKH LGHI Chios Island, GR Chios Island National Airport 15 26 15/13 29.68 LGHI 050350Z 18015G26KT 9999 -TSRA FEW016CB SCT020 15/13 Q1005
NBG KNBG New Orleans, US New Orleans NAS JRB/Alvin Callender Field 15 24 1.5 18/18 29.93 KNBG 050410Z 11015G24KT 1 1/2SM TSRA BR BKN010CB OVC016 18/18 A2993 RMK AO2 RAB01 OCNL LTGICCCCG E AND W TS E AND W MOV NE T1 SET P0028 T01830183 $
SBM KSBM Sheboygan, US Sheboygan County Memorial Airport 14 24 2.5 3/2 29.90 KSBM 050433Z AUTO 01014G24KT 2 1/2SM VCTS +RA BR BKN012 OVC021 04/02 A2990 RMK AO2 LTG DSNT SE-SW TSB13E28 P0012 T00390022
SQI KSQI Sterling/Rockfalls, US Whiteside County Airport-Joseph H Bittorf Field 13 24 6/6 29.86 KSQI 050426Z AUTO 01013G24KT 10SM VCTS -RA FEW012 OVC022 06/06 A2986 RMK AO2 LTG DSNT SE-W TSB20 PRESRR PNO $

Station
 
Location
 
Name
 
Wind
Knots
Gust
Knots
Vis
SM
Temp/Dew
C
Baro
inHg
METAR
 
POF KPOF Poplar Bluff, US Poplar Bluff Municipal Airport 13 24 4 19/16 29.90 KPOF 050424Z AUTO 18013G24KT 4SM -TSRA FEW017 BKN024 OVC080 19/16 A2990 RMK AO2 PK WND 21032/0412 LTG DSNT N-E RAB00 P0055 T01940161 $
MAW KMAW Malden, US Malden Regional Airport 10 17 19/15 29.92 KMAW 050435Z AUTO 21010G17KT 10SM -VCTSDZ SCT035 BKN100 OVC120 19/15 A2992 RMK AO1 LTG DSNT NW THRU NE
KHAE Hannibal, US Hannibal Regional Airport 9 15 9/6 29.83 KHAE 050435Z AUTO 35009G15KT 10SM VCTS SCT049 BKN065 OVC120 09/06 A2983 RMK AO2 LTG DSNT S THRU N
NSE KNSE Milton, US Whiting Field Naval Air Station - North 8 15 2.5 18/17 30.03 KNSE 050356Z 13008G15KT 2 1/2SM -TSRA BR OVC008CB 18/17 A3003 RMK AO2 TSB36 PRESFR SLP155 OCNL LTGICCG OHD TS OHD MOV E T1 SET P0072 T01830172 $
KEFT Monroe, US Monroe Municipal Airport 18 4 4/4 29.86 KEFT 050415Z AUTO 05018KT 4SM -VCTSRA OVC008 04/04 A2986 RMK AO2 LTG DSNT ALQS P0006 T00430043
AAN OMAL Al Ain, AE Al Ain International Airport 17 4.97 20/17 29.94 OMAL 050400Z 16017KT 8000 TS OVC020 FEW030CB 20/17 Q1014 WS ALL RWY TEMPO VRB25G45KT 1200 TSGR
TBN KTBN Fort Leonard Wood, US Waynesville-St. Robert Regional Forney field 13 20/15 29.79 KTBN 050432Z AUTO 16013KT 10SM TS SCT100 20/15 A2979 RMK AO2 TSB32 SLP082
COU KCOU Columbia, US Columbia Regional Airport 11 18/15 29.77 KCOU 050412Z AUTO 18011KT 10SM VCTS FEW041 SCT060 BKN090 18/16 A2977 RMK AO2 LTG DSNT N AND NE AND S RAE09 TSE06 P0002 T01830156
K4M9 10 18/17 29.90 K4M9 050435Z AUTO 20010KT 10SM VCTS CLR 18/17 A2990 RMK A01 LTG DSNT N AND NE
KMYJ Mexico, US Mexico Memorial Airport 10 4 13/11 29.80 KMYJ 050435Z AUTO 32010KT 4SM +TSRA SCT008 SCT023 OVC030 13/11 A2980 RMK AO2 P0007 LTG DSNT ALQDS
IOW KIOW Iowa City, US Iowa City Municipal Airport 10 6/3 29.91 KIOW 050408Z AUTO 02010KT 10SM VCTS FEW029 OVC048 07/03 A2991 RMK AO2 LTG DSNT ALQDS RAE02 P0000 T00670033
VIH KVIH Rolla/Vichy, US Rolla National Airport 9 20/15 29.81 KVIH 050426Z AUTO 19009KT 10SM VCTS BKN060 BKN080 BKN100 20/15 A2981 RMK AO2 LTG DSNT N AND NW T02000150
LOT KLOT Chicago/Romeoville, US Lewis University Airport 8 17/17 29.79 KLOT 050415Z AUTO 15008KT 10SM VCTS SCT049 BKN055 BKN075 17/17 A2979 RMK AO2 LTG DSNT NE AND S AND SW
KNDZ Milton, US Whiting Field Naval Air Station South Airport 7 4 18/17 30.03 KNDZ 050356Z 10007KT 4SM +TSRA BR FEW007 BKN037CB OVC055 19/17 A3003 RMK AO2 TSB28 PRESFR SLP155 OCNL LTGICCG E-SE TS E-SE MOV E T1 SET P0013 T01890172 $
KFYG 7 19/16 29.78 KFYG 050435Z AUTO 12007KT 10SM VCTS CLR 19/16 A2978 RMK AO2 LTG DSNT E AND W AND NW
VPS KVPS Valparaiso, US Destin-Ft Walton Beach Airport 6 19/17 30.04 KVPS 050355Z AUTO 15006KT 10SM VCTS -RA OVC013 20/18 A3004 RMK AO2 RAB28 SLP179 P0003 T01970175 $
LFBC Cazaux (La Teste-de-Buch), FR Cazaux (BA 120) Air Base 6 7/5 30.06 LFBC 050430Z AUTO 22006KT 9999 VCTS FEW040/// SCT048/// BKN064/// ///CB 07/05 Q1018
TUP KTUP Tupelo, US Tupelo Regional Airport 6 18/16 29.98 KTUP 050421Z AUTO 26006KT 10SM TS FEW012 OVC027 19/17 A2998 RMK AO2 LTG DSNT S TSB15 T01890167 $
KAPS 5 19/18 29.93 KAPS 050414Z AUTO 06005KT 10SM VCTS OVC007 19/18 A2993 RMK AO2 LTG DSNT E THRU SW P0001
PIA KPIA Peoria, US General Wayne A. Downing Peoria International Airport 5 15/12 29.79 KPIA 050431Z 34005KT 10SM VCTS BKN032 BKN043 OVC050 15/13 A2979 RMK AO2 LTG DSNT NW-NE RAE13 TSB00E15 P0001 T01500128
KGOV Grayling, US Grayling Army Air Field 5 3 9/9 29.83 KGOV 050415Z AUTO 07005KT 3SM VCTS RA BR OVC055 09/09 A2983 RMK AO2 SLP110 $
PVH SBPV Porto Velho, BR Governador Jorge Teixeira de Oliveira Airport 3 27/24 29.85 SBPV 050400Z 02003KT 9999 VCTS FEW025 FEW030CB SCT045 27/24 Q1011
PGO KPSO Pagosa Springs, US Stevens Field 0 -2/-7 30.00 KPSO 050415Z AUTO 00000KT 10SM VCTS CLR M02/M07 A3000 RMK AO2 T10211074
K0A0 0 11/-4 29.97 K0A0 050415Z AUTO 00000KT 10SM VCTS CLR 11/M04 A2997 RMK AO2 LTG DSNT NE AND SW
KOPL Opelousas, US St Landry Parish Ahart Field 0 5 18/16 29.92 KOPL 050415Z AUTO 00000KT 5SM VCTSRA BKN024 BKN032 OVC040 18/17 A2992 RMK AO2 LTG DSNT E THRU S P0007 T01800167
KC75 0 7 11/9 29.82 KC75 050415Z AUTO 00000KT 7SM +TSRA OVC042 12/09 A2982 RMK AO2 LTG DSNT ALQS P0005 T01180094